Time;durP1;ratioP1;P1;durP2;ratioP2;P2;SDS_P1;SDS_P2;PMS_P1;PMS_P2;Temp;Humidity;BMP_temperature;BMP_pressure;BME280_temperature;BME280_humidity;BME280_pressure;Samples;Min_cycle;Max_cycle;Signal;HPM_P1;HPM_P2
2022/07/23 00:01:00;;;;;;;17.60;4.00;;;;;;;21.16;48.93;101148.25;5031052;28;20032;-45
2022/07/23 00:03:27;;;;;;;20.77;3.83;;;;;;;21.14;48.69;101139.53;5031080;28;20025;-45
2022/07/23 00:05:53;;;;;;;19.38;4.25;;;;;;;21.31;47.95;101140.13;5029934;28;20052;-46
2022/07/23 00:08:19;;;;;;;10.82;3.53;;;;;;;21.60;48.65;101140.44;5031412;28;20552;-46
2022/07/23 00:10:46;;;;;;;13.95;3.95;;;;;;;21.31;48.09;101151.03;5030967;28;20037;-49
2022/07/23 00:13:12;;;;;;;10.45;3.65;;;;;;;21.22;48.34;101137.09;5030315;28;20037;-48
2022/07/23 00:15:38;;;;;;;11.73;3.30;;;;;;;21.01;48.56;101143.59;5029113;28;20108;-49
2022/07/23 00:18:04;;;;;;;15.10;3.50;;;;;;;20.96;49.06;101135.41;5030331;28;20108;-49
2022/07/23 00:20:31;;;;;;;14.55;3.72;;;;;;;20.83;49.17;101128.56;5029305;28;20072;-49
2022/07/23 00:22:57;;;;;;;10.57;3.65;;;;;;;20.77;49.33;101133.19;5013340;28;20381;-47
2022/07/23 00:25:24;;;;;;;13.23;3.28;;;;;;;20.69;49.57;101130.97;5027738;28;20060;-45
2022/07/23 00:27:51;;;;;;;15.73;4.00;;;;;;;20.47;49.32;101139.28;5029664;28;20025;-47
2022/07/23 00:30:17;;;;;;;15.75;4.05;;;;;;;20.69;50.26;101143.75;5033135;28;20014;-46
2022/07/23 00:32:51;;;;;;;16.48;3.55;;;;;;;20.77;50.12;101140.53;5041591;28;20040;-47
2022/07/23 00:35:21;;;;;;;15.80;4.40;;;;;;;20.90;49.24;101133.75;5021488;28;20542;-48
2022/07/23 00:37:47;;;;;;;20.30;4.00;;;;;;;20.78;49.33;101126.66;5029151;28;20370;-48
2022/07/23 00:40:14;;;;;;;10.60;3.25;;;;;;;20.60;50.39;101137.16;5054723;28;20555;-44
2022/07/23 00:42:40;;;;;;;12.68;3.72;;;;;;;20.37;50.85;101133.78;5042425;28;20071;-45
2022/07/23 00:45:07;;;;;;;16.65;4.90;;;;;;;20.39;50.82;101136.25;5034603;28;20393;-45
2022/07/23 00:47:34;;;;;;;13.32;3.97;;;;;;;20.45;50.52;101135.19;5034796;28;20036;-46
2022/07/23 00:50:01;;;;;;;14.95;3.92;;;;;;;20.44;50.67;101130.84;5031120;28;20557;-44
2022/07/23 00:52:27;;;;;;;12.15;3.92;;;;;;;20.41;50.98;101124.00;5028653;28;20540;-48
2022/07/23 00:54:53;;;;;;;15.82;3.67;;;;;;;20.27;50.94;101126.41;5015403;28;20045;-46
2022/07/23 00:57:20;;;;;;;17.05;3.88;;;;;;;20.32;50.87;101144.63;5025804;28;20034;-45
2022/07/23 00:59:49;;;;;;;14.23;3.72;;;;;;;20.37;50.83;101132.94;5036229;28;20029;-45
2022/07/23 01:02:15;;;;;;;14.25;4.00;;;;;;;20.49;51.04;101133.63;5040416;28;20021;-45
2022/07/23 01:04:42;;;;;;;10.90;3.78;;;;;;;20.20;51.32;101141.28;5059060;28;20107;-44
2022/07/23 01:07:08;;;;;;;12.75;4.00;;;;;;;20.30;51.59;101134.00;5056696;28;20151;-47
2022/07/23 01:09:34;;;;;;;11.93;3.95;;;;;;;20.14;51.30;101126.84;5035630;28;20033;-47
2022/07/23 01:12:01;;;;;;;18.35;4.53;;;;;;;20.10;51.37;101130.34;5053450;28;20115;-44
2022/07/23 01:14:27;;;;;;;11.57;3.60;;;;;;;19.97;52.65;101123.47;5036916;28;20042;-46
2022/07/23 01:16:53;;;;;;;13.98;3.85;;;;;;;19.87;52.10;101110.66;5033742;28;20041;-45
2022/07/23 01:19:19;;;;;;;16.02;3.92;;;;;;;20.01;52.50;101116.47;5034446;28;20100;-47
2022/07/23 01:21:49;;;;;;;23.25;4.47;;;;;;;19.99;51.80;101105.03;5033444;28;20393;-47
2022/07/23 01:24:19;;;;;;;12.13;3.85;;;;;;;19.93;52.07;101111.50;5033836;28;20060;-48
2022/07/23 01:26:47;;;;;;;14.20;3.67;;;;;;;20.04;51.94;101105.88;5033706;28;20033;-48
2022/07/23 01:29:14;;;;;;;16.02;3.58;;;;;;;20.04;52.06;101103.19;5024114;28;20041;-44
2022/07/23 01:31:41;;;;;;;21.60;4.55;;;;;;;20.03;51.93;101106.13;5033009;28;20108;-46
2022/07/23 01:34:08;;;;;;;15.10;4.20;;;;;;;19.83;52.34;101101.41;5034257;28;20029;-46
2022/07/23 01:36:37;;;;;;;13.82;4.00;;;;;;;19.92;52.73;101094.38;5029799;28;20044;-48
2022/07/23 01:39:05;;;;;;;12.73;3.53;;;;;;;19.81;52.59;101087.25;5025469;28;20102;-46
2022/07/23 01:41:31;;;;;;;19.80;4.65;;;;;;;19.70;52.62;101077.38;5026213;28;20064;-49
2022/07/23 01:43:58;;;;;;;16.52;4.47;;;;;;;19.50;53.32;101076.13;5016188;28;20041;-48
2022/07/23 01:46:24;;;;;;;16.42;4.75;;;;;;;19.43;53.12;101075.56;5032220;28;20104;-49
2022/07/23 01:48:50;;;;;;;10.40;4.00;;;;;;;19.66;53.78;101085.25;5031511;28;20056;-47
2022/07/23 01:51:16;;;;;;;13.07;4.28;;;;;;;19.83;52.77;101090.53;5029809;28;20025;-49
2022/07/23 01:53:43;;;;;;;19.52;4.03;;;;;;;19.75;52.36;101072.00;5033378;28;20045;-48
2022/07/23 01:56:09;;;;;;;23.17;4.50;;;;;;;19.74;52.54;101079.31;5027146;28;20025;-50
2022/07/23 01:58:35;;;;;;;14.60;4.07;;;;;;;19.86;52.59;101086.47;5034433;28;20026;-48
2022/07/23 02:01:02;;;;;;;17.67;4.45;;;;;;;20.13;51.77;101078.22;5031705;28;20414;-46
2022/07/23 02:03:28;;;;;;;15.18;4.25;;;;;;;20.29;51.67;101083.44;5033061;28;20068;-47
2022/07/23 02:05:54;;;;;;;11.75;3.28;;;;;;;20.43;50.92;101102.00;5032935;28;20036;-50
2022/07/23 02:08:20;;;;;;;17.33;4.07;;;;;;;20.39;50.77;101079.97;5033055;28;20112;-49
2022/07/23 02:10:47;;;;;;;10.77;3.80;;;;;;;20.07;51.44;101082.78;5032630;28;20084;-50
2022/07/23 02:13:13;;;;;;;7.88;3.30;;;;;;;19.95;51.78;101076.75;5032800;28;20129;-50
2022/07/23 02:15:39;;;;;;;16.33;4.10;;;;;;;20.02;51.34;101070.00;5033361;28;20033;-49
2022/07/23 02:18:05;;;;;;;14.43;4.15;;;;;;;20.02;51.80;101074.63;5033528;28;20025;-47
2022/07/23 02:20:32;;;;;;;15.90;4.82;;;;;;;20.20;50.75;101074.16;5024232;28;20541;-46
2022/07/23 02:22:58;;;;;;;14.57;4.35;;;;;;;20.15;51.52;101074.13;5032513;28;20087;-45
2022/07/23 02:25:24;;;;;;;14.75;4.07;;;;;;;20.34;50.53;101069.06;5032798;28;20040;-45
2022/07/23 02:27:50;;;;;;;14.23;3.75;;;;;;;20.33;50.25;101067.44;5032771;28;20076;-46
2022/07/23 02:30:17;;;;;;;9.63;3.13;;;;;;;20.21;50.68;101064.94;5032365;28;20029;-45
2022/07/23 02:32:43;;;;;;;13.88;3.40;;;;;;;20.33;50.39;101069.34;5041825;28;20032;-49
2022/07/23 02:35:09;;;;;;;14.57;4.53;;;;;;;20.24;50.11;101075.28;5033317;28;20470;-46
2022/07/23 02:37:35;;;;;;;13.55;3.65;;;;;;;20.47;49.88;101073.22;5032513;28;20041;-48
2022/07/23 02:40:01;;;;;;;14.30;3.63;;;;;;;20.56;49.59;101077.06;5049642;28;20028;-49
2022/07/23 02:42:28;;;;;;;12.32;3.35;;;;;;;20.54;49.73;101080.06;5038664;28;20068;-49
2022/07/23 02:44:54;;;;;;;15.65;4.30;;;;;;;20.37;50.07;101087.56;5032222;28;20104;-49
2022/07/23 02:47:20;;;;;;;13.88;3.55;;;;;;;20.14;50.56;101083.38;5032520;28;20389;-46
2022/07/23 02:49:46;;;;;;;12.52;3.45;;;;;;;19.92;51.13;101074.56;5032040;28;20029;-49
2022/07/23 02:52:12;;;;;;;18.80;4.40;;;;;;;19.90;51.26;101076.72;5031736;28;20395;-46
2022/07/23 02:54:39;;;;;;;13.32;3.53;;;;;;;19.46;52.23;101083.16;5032381;28;20041;-49
2022/07/23 02:57:05;;;;;;;12.57;3.50;;;;;;;19.30;52.45;101077.88;5014618;28;20079;-48
2022/07/23 02:59:32;;;;;;;13.77;3.92;;;;;;;18.78;54.01;101075.75;5032087;28;20025;-49
2022/07/23 03:01:58;;;;;;;14.23;3.95;;;;;;;18.53;54.83;101085.16;5039928;28;20037;-46
2022/07/23 03:04:24;;;;;;;11.02;3.35;;;;;;;18.36;55.35;101085.22;5032024;28;20030;-49
2022/07/23 03:06:50;;;;;;;14.35;3.95;;;;;;;18.08;56.28;101086.22;5032080;28;20029;-47
2022/07/23 03:09:16;;;;;;;12.80;4.20;;;;;;;17.88;57.16;101085.94;5031618;28;20496;-48
2022/07/23 03:11:42;;;;;;;20.67;5.40;;;;;;;17.58;57.84;101091.66;5037996;28;20029;-45
2022/07/23 03:14:09;;;;;;;14.73;4.65;;;;;;;17.24;59.31;101093.53;5034393;28;20049;-45
2022/07/23 03:16:35;;;;;;;25.35;4.40;;;;;;;17.04;59.77;101089.38;5032166;28;20033;-48
2022/07/23 03:19:02;;;;;;;18.13;4.18;;;;;;;16.88;60.75;101090.19;5032256;28;20021;-47
2022/07/23 03:21:28;;;;;;;17.00;4.60;;;;;;;16.70;61.39;101087.63;5030687;28;20021;-45
2022/07/23 03:23:54;;;;;;;13.85;3.80;;;;;;;16.68;61.15;101090.56;5030439;28;20029;-48
2022/07/23 03:26:20;;;;;;;18.70;5.38;;;;;;;16.59;61.72;101087.41;5031934;28;20024;-50
2022/07/23 03:28:46;;;;;;;17.92;4.40;;;;;;;16.45;62.25;101082.53;5030732;28;20033;-47
2022/07/23 03:31:12;;;;;;;18.80;4.53;;;;;;;16.14;63.75;101083.75;5030392;28;20041;-45
2022/07/23 03:33:39;;;;;;;11.20;4.18;;;;;;;16.07;63.81;101082.00;5031223;28;20414;-48
2022/07/23 03:36:05;;;;;;;13.73;3.72;;;;;;;16.18;63.18;101093.03;5030644;28;20051;-45
2022/07/23 03:38:31;;;;;;;17.30;4.35;;;;;;;16.24;63.30;101106.41;5030575;28;20036;-47
2022/07/23 03:40:58;;;;;;;15.30;4.18;;;;;;;16.13;63.69;101093.75;5030147;28;20105;-50
2022/07/23 03:43:26;;;;;;;18.90;5.18;;;;;;;16.13;63.76;101098.34;5030750;28;20128;-46
2022/07/23 03:45:52;;;;;;;22.70;4.78;;;;;;;16.01;64.24;101101.03;5030372;28;20462;-48
2022/07/23 03:48:19;;;;;;;19.30;5.03;;;;;;;15.85;64.82;101089.06;5030642;28;20033;-48
2022/07/23 03:50:45;;;;;;;14.98;3.95;;;;;;;15.73;65.47;101088.25;5030840;28;20528;-48
2022/07/23 03:53:11;;;;;;;22.55;4.97;;;;;;;15.67;66.13;101089.19;5031655;28;20037;-49
2022/07/23 03:55:37;;;;;;;16.38;5.20;;;;;;;15.75;65.75;101083.44;5030502;28;20040;-48
2022/07/23 03:58:03;;;;;;;12.30;4.78;;;;;;;15.56;66.41;101088.09;5031802;28;20108;-45
2022/07/23 04:00:30;;;;;;;16.75;4.30;;;;;;;15.48;66.75;101081.13;5029555;28;20032;-46
2022/07/23 04:02:56;;;;;;;18.17;5.03;;;;;;;15.36;67.19;101072.22;5030718;28;20456;-48
2022/07/23 04:05:22;;;;;;;16.33;4.85;;;;;;;15.23;67.79;101078.66;5029773;28;20049;-46
2022/07/23 04:07:48;;;;;;;19.92;4.50;;;;;;;15.33;67.45;101086.19;5031054;28;20039;-46
2022/07/23 04:10:14;;;;;;;18.88;4.97;;;;;;;15.36;67.15;101087.56;5032434;28;20022;-49
2022/07/23 04:12:41;;;;;;;13.73;4.20;;;;;;;15.40;67.18;101094.97;5033826;28;20406;-47
2022/07/23 04:15:08;;;;;;;23.50;4.95;;;;;;;15.26;67.71;101094.34;5034553;28;20462;-46
2022/07/23 04:17:35;;;;;;;15.60;4.72;;;;;;;15.18;68.02;101102.78;5034144;28;20048;-47
2022/07/23 04:20:01;;;;;;;17.25;4.85;;;;;;;15.20;67.93;101099.84;5033655;28;20481;-45
2022/07/23 04:22:28;;;;;;;20.05;5.07;;;;;;;15.14;68.31;101100.75;5021376;28;20045;-47
2022/07/23 04:24:54;;;;;;;22.48;4.85;;;;;;;15.09;68.67;101095.25;5026687;28;20025;-49
2022/07/23 04:27:20;;;;;;;17.65;4.80;;;;;;;15.15;69.00;101092.44;5032114;28;20262;-48
2022/07/23 04:29:46;;;;;;;20.38;4.75;;;;;;;15.21;69.43;101093.38;5015830;28;20076;-48
2022/07/23 04:32:12;;;;;;;23.67;5.55;;;;;;;15.08;69.75;101085.50;5032801;28;20393;-49
2022/07/23 04:34:39;;;;;;;24.63;5.38;;;;;;;15.08;70.06;101096.28;5033371;28;20030;-48
2022/07/23 04:37:05;;;;;;;25.20;5.97;;;;;;;15.03;69.89;101111.28;5034565;28;20025;-48
2022/07/23 04:39:31;;;;;;;15.85;4.47;;;;;;;14.88;70.37;101113.56;5015432;28;20029;-46
2022/07/23 04:41:57;;;;;;;20.80;5.65;;;;;;;14.91;70.01;101096.13;5033133;28;20102;-49
2022/07/23 04:44:24;;;;;;;21.70;5.75;;;;;;;14.84;69.92;101095.38;5022094;28;20045;-46
2022/07/23 04:46:50;;;;;;;19.27;5.18;;;;;;;14.98;69.31;101102.22;5033244;28;20025;-47
2022/07/23 04:49:16;;;;;;;17.52;5.07;;;;;;;14.97;69.05;101105.97;5033762;28;20033;-48
2022/07/23 04:51:42;;;;;;;14.15;4.70;;;;;;;14.95;68.84;101106.22;5033066;28;20414;-49
2022/07/23 04:54:08;;;;;;;15.40;4.68;;;;;;;14.90;69.45;101100.69;5034184;28;20034;-48
2022/07/23 04:56:35;;;;;;;19.70;5.20;;;;;;;14.78;69.90;101111.41;5033035;28;20033;-45
2022/07/23 04:59:01;;;;;;;26.17;5.60;;;;;;;14.78;69.93;101097.94;5032995;28;20411;-45
2022/07/23 05:01:27;;;;;;;16.10;5.55;;;;;;;14.87;69.89;101106.53;5032711;28;20083;-45
2022/07/23 05:03:53;;;;;;;25.67;6.05;;;;;;;14.77;70.09;101111.66;5033105;28;20037;-48
2022/07/23 05:06:19;;;;;;;22.45;4.65;;;;;;;14.70;70.34;101110.91;5032828;28;20285;-48
2022/07/23 05:08:46;;;;;;;17.05;4.75;;;;;;;14.71;70.43;101115.22;5032374;28;20029;-46
2022/07/23 05:11:12;;;;;;;21.52;5.15;;;;;;;14.58;70.85;101110.00;5032573;28;20091;-45
2022/07/23 05:13:38;;;;;;;20.25;4.88;;;;;;;14.49;71.25;101114.88;5032585;28;20055;-48
2022/07/23 05:16:05;;;;;;;18.27;4.68;;;;;;;14.63;70.85;101126.31;5032058;28;20040;-46
2022/07/23 05:18:31;;;;;;;13.95;5.07;;;;;;;14.50;71.47;101122.75;5033768;28;20052;-45
2022/07/23 05:20:57;;;;;;;18.33;4.97;;;;;;;14.51;71.52;101124.38;5031151;28;20064;-45
2022/07/23 05:23:23;;;;;;;24.60;4.70;;;;;;;14.47;71.63;101108.91;5031358;28;20030;-48
2022/07/23 05:25:49;;;;;;;26.65;5.05;;;;;;;14.43;71.42;101107.66;5032296;28;20416;-47
2022/07/23 05:28:16;;;;;;;19.65;4.70;;;;;;;14.36;71.81;101110.44;5032453;28;20076;-47
2022/07/23 05:30:42;;;;;;;16.52;4.57;;;;;;;14.36;72.22;101104.22;5031991;28;20029;-45
2022/07/23 05:33:08;;;;;;;21.13;5.47;;;;;;;14.34;72.15;101106.34;5032307;28;20021;-48
2022/07/23 05:35:34;;;;;;;25.58;6.38;;;;;;;14.27;72.40;101101.03;5018279;28;20033;-48
2022/07/23 05:38:01;;;;;;;26.52;5.68;;;;;;;14.36;71.79;101102.34;5033363;28;20037;-49
2022/07/23 05:40:27;;;;;;;21.27;5.30;;;;;;;14.36;71.61;101096.97;5032099;28;20114;-45
2022/07/23 05:42:53;;;;;;;13.70;4.22;;;;;;;14.37;71.65;101105.88;5015344;28;20022;-48
2022/07/23 05:45:19;;;;;;;19.52;5.45;;;;;;;14.31;72.20;101104.91;5031019;28;20044;-46
2022/07/23 05:47:49;;;;;;;14.18;4.82;;;;;;;14.27;72.67;101104.53;5032378;28;20041;-47
2022/07/23 05:50:16;;;;;;;16.88;4.95;;;;;;;14.22;72.94;101108.94;5032852;28;20033;-48
2022/07/23 05:52:43;;;;;;;18.13;4.72;;;;;;;14.08;73.39;101105.56;5031742;28;20032;-46
2022/07/23 05:55:12;;;;;;;19.73;5.70;;;;;;;14.11;73.43;101097.06;5033097;28;20025;-48
2022/07/23 05:57:39;;;;;;;18.25;5.55;;;;;;;14.05;73.70;101092.56;5031799;28;20022;-48
2022/07/23 06:00:07;;;;;;;20.15;5.53;;;;;;;13.98;74.05;101092.59;5031713;28;20080;-48
2022/07/23 06:02:33;;;;;;;22.83;5.70;;;;;;;13.94;73.92;101091.41;5031840;28;20105;-45
2022/07/23 06:05:00;;;;;;;15.50;5.10;;;;;;;13.96;73.38;101086.63;5032586;28;20065;-45
2022/07/23 06:07:26;;;;;;;17.58;5.35;;;;;;;13.82;73.82;101081.59;5030619;28;20026;-45
2022/07/23 06:09:52;;;;;;;21.15;5.28;;;;;;;13.78;73.91;101073.16;5031471;28;20021;-49
2022/07/23 06:12:18;;;;;;;14.90;5.43;;;;;;;13.87;73.66;101073.69;5030903;28;20025;-47
2022/07/23 06:14:45;;;;;;;21.02;5.45;;;;;;;13.83;74.02;101075.19;5032338;28;20128;-46
2022/07/23 06:17:11;;;;;;;21.42;5.78;;;;;;;13.86;74.17;101072.03;5030678;28;20057;-47
2022/07/23 06:19:37;;;;;;;20.75;5.32;;;;;;;13.77;74.72;101076.91;5032697;28;20469;-46
2022/07/23 06:22:03;;;;;;;21.23;6.13;;;;;;;13.84;74.43;101068.75;5029911;28;20071;-48
2022/07/23 06:24:30;;;;;;;27.27;6.93;;;;;;;13.76;74.40;101067.16;5031670;28;20124;-44
2022/07/23 06:26:56;;;;;;;31.38;5.97;;;;;;;13.72;74.52;101069.47;5031248;28;20029;-46
2022/07/23 06:29:22;;;;;;;20.88;5.20;;;;;;;13.63;74.63;101076.16;5031515;28;20033;-48
2022/07/23 06:31:48;;;;;;;20.40;5.40;;;;;;;13.53;75.22;101073.16;5030981;28;20030;-48
2022/07/23 06:34:14;;;;;;;21.35;6.18;;;;;;;13.52;75.62;101068.00;5031118;28;20040;-48
2022/07/23 06:36:41;;;;;;;27.05;5.63;;;;;;;13.52;75.52;101071.50;5031043;28;20112;-48
2022/07/23 06:39:07;;;;;;;21.70;5.57;;;;;;;13.51;75.39;101077.13;5030372;28;20091;-48
2022/07/23 06:41:33;;;;;;;20.42;5.85;;;;;;;13.40;75.76;101076.78;5032103;28;20048;-46
2022/07/23 06:43:59;;;;;;;24.35;6.50;;;;;;;13.39;75.60;101082.38;5029433;28;20025;-45
2022/07/23 06:46:26;;;;;;;22.33;6.47;;;;;;;13.42;75.36;101080.06;5031938;28;20056;-45
2022/07/23 06:48:52;;;;;;;28.00;6.88;;;;;;;13.22;76.42;101082.09;5030860;28;20060;-47
2022/07/23 06:51:18;;;;;;;23.98;5.72;;;;;;;13.10;76.57;101084.63;5031858;28;20029;-45
2022/07/23 06:53:44;;;;;;;22.50;6.63;;;;;;;13.11;76.54;101085.44;5030559;28;20029;-48
2022/07/23 06:56:11;;;;;;;25.05;5.72;;;;;;;13.12;76.45;101087.09;5032193;28;20036;-48
2022/07/23 06:58:37;;;;;;;32.53;6.95;;;;;;;13.05;76.80;101091.69;5031028;28;20128;-48
2022/07/23 07:01:03;;;;;;;31.48;6.93;;;;;;;13.17;76.52;101085.41;5031672;28;20497;-47
2022/07/23 07:03:29;;;;;;;25.80;6.78;;;;;;;13.07;77.32;101084.22;5031003;28;20076;-45
2022/07/23 07:05:57;;;;;;;24.08;6.32;;;;;;;13.07;77.02;101092.28;5029825;28;20033;-47
2022/07/23 07:08:24;;;;;;;24.73;6.40;;;;;;;12.95;77.68;101086.78;5030783;28;20071;-45
2022/07/23 07:10:50;;;;;;;26.63;6.65;;;;;;;12.93;77.88;101086.16;5029559;28;20026;-46
2022/07/23 07:13:16;;;;;;;23.58;6.40;;;;;;;12.77;78.20;101090.19;5031492;28;20494;-46
2022/07/23 07:15:43;;;;;;;27.35;6.30;;;;;;;12.84;77.83;101095.53;5026033;28;20065;-49
2022/07/23 07:18:09;;;;;;;21.13;6.38;;;;;;;12.72;78.18;101095.38;5031757;28;20052;-45
2022/07/23 07:20:35;;;;;;;26.45;6.38;;;;;;;12.69;78.64;101090.41;5030369;28;20471;-45
2022/07/23 07:23:01;;;;;;;31.38;6.90;;;;;;;12.73;78.62;101093.50;5030162;28;20448;-45
2022/07/23 07:25:28;;;;;;;20.65;5.55;;;;;;;12.71;79.18;101091.00;5030559;28;20033;-46
2022/07/23 07:27:54;;;;;;;22.35;6.68;;;;;;;12.73;79.23;101082.75;5029798;28;20025;-46
2022/07/23 07:30:20;;;;;;;30.95;7.25;;;;;;;12.82;79.43;101086.84;5030303;28;20103;-45
2022/07/23 07:32:47;;;;;;;25.35;6.78;;;;;;;12.79;79.81;101081.91;5031270;28;20061;-46
2022/07/23 07:35:14;;;;;;;24.13;6.78;;;;;;;12.77;79.93;101078.59;5030101;28;20117;-45
2022/07/23 07:37:40;;;;;;;26.38;7.10;;;;;;;12.83;79.90;101078.59;5029542;28;20525;-44
2022/07/23 07:40:07;;;;;;;29.45;7.35;;;;;;;12.82;79.66;101078.78;5030500;28;20068;-47
2022/07/23 07:42:33;;;;;;;27.02;7.53;;;;;;;12.95;79.14;101078.72;5030150;28;20056;-47
2022/07/23 07:44:59;;;;;;;29.00;6.63;;;;;;;12.89;79.42;101077.72;5032876;28;20509;-47
2022/07/23 07:47:26;;;;;;;25.65;6.45;;;;;;;12.91;79.14;101080.19;5034351;28;20033;-44
2022/07/23 07:49:52;;;;;;;33.40;7.00;;;;;;;12.89;78.81;101088.47;5017047;28;20036;-44
2022/07/23 07:52:18;;;;;;;22.63;7.22;;;;;;;12.87;79.12;101087.84;5041077;23;20041;-45
2022/07/23 07:54:44;;;;;;;25.13;6.63;;;;;;;12.90;79.38;101089.28;5035283;28;20429;-46
2022/07/23 07:57:10;;;;;;;27.83;6.82;;;;;;;12.91;79.29;101090.94;5034160;28;20022;-45
2022/07/23 07:59:37;;;;;;;26.42;7.75;;;;;;;12.94;79.20;101096.72;5035104;28;20026;-47
2022/07/23 08:02:03;;;;;;;28.90;6.75;;;;;;;12.89;79.16;101088.47;5033970;28;20029;-45
2022/07/23 08:04:29;;;;;;;23.17;7.22;;;;;;;12.92;78.85;101082.63;5034896;28;20099;-45
2022/07/23 08:06:55;;;;;;;25.88;6.45;;;;;;;12.84;79.35;101079.41;5034081;28;20033;-48
2022/07/23 08:09:21;;;;;;;29.48;7.00;;;;;;;12.82;79.72;101087.66;5032895;28;20033;-48
2022/07/23 08:11:48;;;;;;;24.67;7.03;;;;;;;12.74;79.84;101087.09;5034779;28;20068;-46
2022/07/23 08:14:14;;;;;;;23.48;6.07;;;;;;;12.68;80.08;101086.91;5033644;28;20652;-44
2022/07/23 08:16:40;;;;;;;18.05;5.93;;;;;;;12.72;79.86;101092.69;5034776;28;20033;-44
2022/07/23 08:19:07;;;;;;;21.77;5.55;;;;;;;12.62;79.79;101097.69;5034690;28;20029;-45
2022/07/23 08:21:33;;;;;;;29.23;6.20;;;;;;;12.51;79.64;101104.53;5015851;28;20057;-43
2022/07/23 08:23:59;;;;;;;16.20;4.45;;;;;;;12.46;79.45;101101.66;5034678;28;20025;-45
2022/07/23 08:26:25;;;;;;;13.95;4.35;;;;;;;12.47;79.27;101100.63;5032389;28;20466;-44
2022/07/23 08:28:51;;;;;;;20.23;5.20;;;;;;;12.46;79.67;101103.53;5033484;28;20026;-44
2022/07/23 08:31:18;;;;;;;16.90;5.18;;;;;;;12.31;80.54;101101.09;5034315;28;20036;-44
2022/07/23 08:33:44;;;;;;;19.08;5.30;;;;;;;12.33;80.65;101089.13;5033230;28;20037;-45
2022/07/23 08:36:11;;;;;;;15.60;4.90;;;;;;;12.32;80.45;101092.81;5034652;28;20037;-44
2022/07/23 08:38:37;;;;;;;19.13;5.00;;;;;;;12.46;79.90;101090.09;5033187;28;20469;-45
2022/07/23 08:41:07;;;;;;;15.48;5.30;;;;;;;12.34;80.33;101088.06;5033092;28;20109;-43
2022/07/23 08:43:35;;;;;;;17.08;5.07;;;;;;;12.37;80.77;101090.31;5033601;28;20029;-45
2022/07/23 08:46:02;;;;;;;12.48;4.45;;;;;;;12.40;79.99;101089.91;5035793;28;20133;-46
2022/07/23 08:48:31;;;;;;;20.80;5.40;;;;;;;12.29;79.91;101084.38;5032895;28;20489;-44
2022/07/23 08:51:00;;;;;;;20.48;4.68;;;;;;;12.26;80.43;101084.78;5033293;28;20030;-46
2022/07/23 08:53:29;;;;;;;17.27;5.53;;;;;;;12.21;80.63;101082.72;5034007;28;20029;-45
2022/07/23 08:55:57;;;;;;;14.07;5.28;;;;;;;12.22;80.20;101079.03;5032876;28;20052;-46
2022/07/23 08:58:24;;;;;;;14.02;4.25;;;;;;;12.23;80.66;101074.50;5033952;28;20474;-43
2022/07/23 09:00:50;;;;;;;12.77;3.95;;;;;;;12.11;81.15;101082.38;5032629;28;20040;-47
2022/07/23 09:03:19;;;;;;;9.23;3.67;;;;;;;12.09;81.60;101077.19;5032976;28;20052;-45
2022/07/23 09:05:46;;;;;;;13.77;4.30;;;;;;;11.99;81.64;101084.84;5031786;28;20033;-44
2022/07/23 09:08:24;;;;;;;12.02;3.50;;;;;;;12.02;81.77;101084.44;5033983;28;20040;-44
2022/07/23 09:10:59;;;;;;;13.70;4.28;;;;;;;12.04;81.94;101084.22;5017658;28;20025;-47
2022/07/23 09:13:33;;;;;;;13.05;4.35;;;;;;;12.03;81.87;101093.31;5032667;28;20036;-47
2022/07/23 09:16:06;;;;;;;15.65;4.10;;;;;;;12.06;82.09;101092.91;5010418;28;20394;-45
2022/07/23 09:18:47;;;;;;;10.48;3.78;;;;;;;12.05;82.44;101099.31;5032474;28;20031;-46
2022/07/23 09:21:20;;;;;;;10.68;3.85;;;;;;;12.11;81.72;101096.59;5033600;28;20123;-47
2022/07/23 09:23:57;;;;;;;11.77;3.95;;;;;;;12.12;81.72;101105.47;5032950;28;20124;-44
2022/07/23 09:26:36;;;;;;;11.38;3.70;;;;;;;12.02;81.66;101103.22;5032985;28;20064;-46
2022/07/23 09:29:06;;;;;;;14.77;3.20;;;;;;;11.98;81.75;101103.84;5031494;28;20026;-45
2022/07/23 09:32:07;;;;;;;10.63;4.00;;;;;;;12.03;81.77;101104.03;5033299;28;20057;-46
2022/07/23 09:34:38;;;;;;;11.13;4.00;;;;;;;11.98;81.73;101109.22;4980163;28;20103;-44
2022/07/23 09:37:13;;;;;;;10.32;3.40;;;;;;;11.98;81.66;101106.53;5032445;28;20637;-45
2022/07/23 09:39:40;;;;;;;9.88;3.67;;;;;;;11.98;81.64;101111.88;5032049;28;20029;-43
2022/07/23 09:42:21;;;;;;;12.50;3.70;;;;;;;11.98;82.21;101107.34;5033419;28;20358;-44
2022/07/23 09:44:50;;;;;;;15.60;4.07;;;;;;;12.09;81.62;101112.06;5031717;28;20117;-45
2022/07/23 09:47:17;;;;;;;10.68;4.15;;;;;;;12.09;81.76;101113.94;5033107;28;20021;-43
2022/07/23 09:50:08;;;;;;;12.38;3.95;;;;;;;12.17;81.60;101108.34;5031736;28;20052;-44
2022/07/23 09:52:41;;;;;;;12.88;3.47;;;;;;;12.12;81.72;101116.22;5031766;28;20485;-45
2022/07/23 09:55:07;;;;;;;15.95;4.18;;;;;;;12.10;81.71;101115.56;5032244;28;20042;-45
2022/07/23 09:57:33;;;;;;;13.50;4.50;;;;;;;12.18;81.40;101115.38;5033125;28;20034;-47
2022/07/23 10:00:06;;;;;;;12.52;4.07;;;;;;;12.22;81.55;101118.47;5030712;28;20026;-48
2022/07/23 10:02:33;;;;;;;14.55;4.00;;;;;;;12.21;81.19;101125.66;5030589;28;20080;-47
2022/07/23 10:05:02;;;;;;;11.88;3.50;;;;;;;12.31;80.74;101125.25;5032103;28;20041;-47
2022/07/23 10:07:33;;;;;;;11.88;3.75;;;;;;;12.27;80.47;101115.94;5031780;28;20034;-48
2022/07/23 10:10:00;;;;;;;13.00;3.35;;;;;;;12.19;81.02;101119.69;5030844;28;20030;-46
2022/07/23 10:15:07;;;;;;;9.93;3.00;;;;;;;12.13;80.98;101112.50;5023538;28;20037;-44
2022/07/23 10:17:35;;;;;;;10.48;3.78;;;;;;;12.19;80.55;101106.28;5026008;28;20030;-44
2022/07/23 10:20:03;;;;;;;13.27;4.80;;;;;;;12.28;80.58;101106.91;5031079;28;20047;-46
2022/07/23 10:22:44;;;;;;;11.55;4.30;;;;;;;12.30;81.01;101115.56;5013495;28;20584;-45
2022/07/23 10:25:30;;;;;;;14.00;3.70;;;;;;;12.32;80.94;101108.09;5031706;28;20021;-45
2022/07/23 10:28:06;;;;;;;12.98;3.95;;;;;;;12.32;80.65;101116.16;5028131;28;20029;-46
2022/07/23 10:30:43;;;;;;;8.07;3.28;;;;;;;12.30;80.38;101123.59;5031073;28;20032;-46
2022/07/23 10:33:27;;;;;;;14.13;3.85;;;;;;;12.22;80.58;101121.97;5032304;28;20034;-43
2022/07/23 10:36:07;;;;;;;7.40;3.30;;;;;;;12.18;80.86;101127.97;5031706;28;20042;-46
2022/07/23 10:38:40;;;;;;;11.85;3.90;;;;;;;12.20;81.19;101120.53;5031537;28;20025;-44
2022/07/23 10:41:06;;;;;;;21.92;3.88;;;;;;;12.28;80.65;101106.91;5027126;28;20068;-44
2022/07/23 10:43:32;;;;;;;9.98;3.58;;;;;;;12.25;80.40;101110.81;5030149;28;20032;-45
2022/07/23 10:49:25;;;;;;;16.10;3.55;;;;;;;12.25;80.05;101108.13;4981085;28;20033;-44
2022/07/23 10:52:13;;;;;;;12.35;3.80;;;;;;;12.17;80.79;101105.69;5030776;28;20533;-44
2022/07/23 10:54:53;;;;;;;9.75;3.50;;;;;;;12.13;80.98;101099.06;5012893;28;20048;-45
2022/07/23 10:57:23;;;;;;;16.92;4.95;;;;;;;12.12;80.84;101103.63;5030755;28;20029;-43
2022/07/23 11:00:19;;;;;;;16.98;4.05;;;;;;;12.12;81.10;101100.13;5031373;28;20021;-43
2022/07/23 11:02:48;;;;;;;9.10;3.35;;;;;;;12.11;80.20;101096.59;5030304;28;20044;-44
2022/07/23 11:05:17;;;;;;;13.45;3.70;;;;;;;12.10;81.03;101103.00;5029797;28;20040;-44
2022/07/23 11:08:05;;;;;;;11.05;3.65;;;;;;;12.07;81.59;101107.97;5029984;28;20049;-44
2022/07/23 11:10:37;;;;;;;13.55;4.35;;;;;;;12.07;81.22;101105.28;5030213;28;20036;-44
2022/07/23 11:13:24;;;;;;;11.32;3.95;;;;;;;12.07;81.29;101106.09;5030141;28;20040;-44
2022/07/23 11:16:10;;;;;;;12.32;4.13;;;;;;;12.04;81.00;101100.31;5030578;28;20047;-43
2022/07/23 11:18:42;;;;;;;12.48;4.70;;;;;;;12.01;81.47;101108.81;5030548;28;20029;-46
2022/07/23 11:21:41;;;;;;;12.55;3.67;;;;;;;12.09;81.36;101113.94;5028795;28;20059;-43
2022/07/23 11:24:10;;;;;;;16.45;4.18;;;;;;;12.02;81.60;101115.81;5030761;28;20440;-43
2022/07/23 11:26:58;;;;;;;12.48;3.47;;;;;;;12.01;81.53;101117.69;5031243;28;20036;-46